sensor_id;sensor_type;location;lat;lon;timestamp;temperature;humidity
79698;SHT31;69168;42.708;23.286;2023-04-25T00:01:20;12.98;75.19
79698;SHT31;69168;42.708;23.286;2023-04-25T00:03:47;12.90;75.32
79698;SHT31;69168;42.708;23.286;2023-04-25T00:06:13;12.85;75.05
79698;SHT31;69168;42.708;23.286;2023-04-25T00:08:39;12.83;73.89
79698;SHT31;69168;42.708;23.286;2023-04-25T00:11:04;12.77;73.19
79698;SHT31;69168;42.708;23.286;2023-04-25T00:13:30;12.72;73.74
79698;SHT31;69168;42.708;23.286;2023-04-25T00:15:55;12.73;75.01
79698;SHT31;69168;42.708;23.286;2023-04-25T00:18:24;12.85;76.17
79698;SHT31;69168;42.708;23.286;2023-04-25T00:20:49;12.84;75.11
79698;SHT31;69168;42.708;23.286;2023-04-25T00:23:16;12.81;75.08
79698;SHT31;69168;42.708;23.286;2023-04-25T00:25:47;12.80;72.26
79698;SHT31;69168;42.708;23.286;2023-04-25T00:28:14;12.84;74.33
79698;SHT31;69168;42.708;23.286;2023-04-25T00:30:40;12.72;75.99
79698;SHT31;69168;42.708;23.286;2023-04-25T00:33:06;12.76;75.24
79698;SHT31;69168;42.708;23.286;2023-04-25T00:35:32;12.64;75.53
79698;SHT31;69168;42.708;23.286;2023-04-25T00:37:58;12.47;75.40
79698;SHT31;69168;42.708;23.286;2023-04-25T00:40:23;12.30;75.94
79698;SHT31;69168;42.708;23.286;2023-04-25T00:42:49;12.19;77.14
79698;SHT31;69168;42.708;23.286;2023-04-25T00:45:17;12.38;77.64
79698;SHT31;69168;42.708;23.286;2023-04-25T00:47:43;12.45;77.96
79698;SHT31;69168;42.708;23.286;2023-04-25T00:50:09;12.50;77.79
79698;SHT31;69168;42.708;23.286;2023-04-25T00:52:37;12.63;74.60
79698;SHT31;69168;42.708;23.286;2023-04-25T00:55:03;12.63;76.40
79698;SHT31;69168;42.708;23.286;2023-04-25T00:57:29;12.66;76.75
79698;SHT31;69168;42.708;23.286;2023-04-25T00:59:54;12.64;78.20
79698;SHT31;69168;42.708;23.286;2023-04-25T01:02:20;12.61;78.33
79698;SHT31;69168;42.708;23.286;2023-04-25T01:04:47;12.67;77.90
79698;SHT31;69168;42.708;23.286;2023-04-25T01:07:13;12.70;78.43
79698;SHT31;69168;42.708;23.286;2023-04-25T01:09:39;12.52;78.82
79698;SHT31;69168;42.708;23.286;2023-04-25T01:12:05;12.55;77.70
79698;SHT31;69168;42.708;23.286;2023-04-25T01:14:30;12.53;78.89
79698;SHT31;69168;42.708;23.286;2023-04-25T01:16:56;12.42;78.55
79698;SHT31;69168;42.708;23.286;2023-04-25T01:19:22;12.38;79.18
79698;SHT31;69168;42.708;23.286;2023-04-25T01:21:48;12.45;78.81
79698;SHT31;69168;42.708;23.286;2023-04-25T01:24:14;12.40;79.32
79698;SHT31;69168;42.708;23.286;2023-04-25T01:26:41;12.38;79.30
79698;SHT31;69168;42.708;23.286;2023-04-25T01:29:10;12.22;80.03
79698;SHT31;69168;42.708;23.286;2023-04-25T01:31:36;12.24;80.08
79698;SHT31;69168;42.708;23.286;2023-04-25T01:34:01;12.11;80.23
79698;SHT31;69168;42.708;23.286;2023-04-25T01:36:27;11.99;80.66
79698;SHT31;69168;42.708;23.286;2023-04-25T01:38:53;12.04;80.87
79698;SHT31;69168;42.708;23.286;2023-04-25T01:41:18;12.04;80.58
79698;SHT31;69168;42.708;23.286;2023-04-25T01:43:45;11.85;80.71
79698;SHT31;69168;42.708;23.286;2023-04-25T01:46:11;11.87;81.23
79698;SHT31;69168;42.708;23.286;2023-04-25T01:48:36;11.92;80.70
79698;SHT31;69168;42.708;23.286;2023-04-25T01:51:02;11.75;81.23
79698;SHT31;69168;42.708;23.286;2023-04-25T01:53:28;11.87;80.81
79698;SHT31;69168;42.708;23.286;2023-04-25T01:55:53;12.04;79.92
79698;SHT31;69168;42.708;23.286;2023-04-25T01:58:19;12.09;79.85
79698;SHT31;69168;42.708;23.286;2023-04-25T02:00:45;12.11;79.40
79698;SHT31;69168;42.708;23.286;2023-04-25T02:03:11;12.15;79.04
79698;SHT31;69168;42.708;23.286;2023-04-25T02:05:38;12.06;79.88
79698;SHT31;69168;42.708;23.286;2023-04-25T02:08:06;12.06;79.55
79698;SHT31;69168;42.708;23.286;2023-04-25T02:10:33;12.09;79.61
79698;SHT31;69168;42.708;23.286;2023-04-25T02:12:59;12.06;80.63
79698;SHT31;69168;42.708;23.286;2023-04-25T02:15:24;12.02;80.46
79698;SHT31;69168;42.708;23.286;2023-04-25T02:17:50;12.05;79.95
79698;SHT31;69168;42.708;23.286;2023-04-25T02:20:18;12.05;79.91
79698;SHT31;69168;42.708;23.286;2023-04-25T02:22:45;12.09;80.10
79698;SHT31;69168;42.708;23.286;2023-04-25T02:25:11;12.05;79.50
79698;SHT31;69168;42.708;23.286;2023-04-25T02:27:36;11.95;80.02
79698;SHT31;69168;42.708;23.286;2023-04-25T02:30:02;11.94;79.84
79698;SHT31;69168;42.708;23.286;2023-04-25T02:32:28;11.87;80.14
79698;SHT31;69168;42.708;23.286;2023-04-25T02:34:53;11.75;80.09
79698;SHT31;69168;42.708;23.286;2023-04-25T02:37:19;11.84;80.11
79698;SHT31;69168;42.708;23.286;2023-04-25T02:39:45;11.85;79.64
79698;SHT31;69168;42.708;23.286;2023-04-25T02:42:10;11.81;80.12
79698;SHT31;69168;42.708;23.286;2023-04-25T02:44:35;11.83;80.20
79698;SHT31;69168;42.708;23.286;2023-04-25T02:47:01;11.85;79.42
79698;SHT31;69168;42.708;23.286;2023-04-25T02:49:26;11.78;80.11
79698;SHT31;69168;42.708;23.286;2023-04-25T02:51:52;11.69;80.46
79698;SHT31;69168;42.708;23.286;2023-04-25T02:54:17;11.67;80.17
79698;SHT31;69168;42.708;23.286;2023-04-25T02:56:43;11.70;80.09
79698;SHT31;69168;42.708;23.286;2023-04-25T02:59:08;11.78;79.74
79698;SHT31;69168;42.708;23.286;2023-04-25T03:01:33;11.74;79.48
79698;SHT31;69168;42.708;23.286;2023-04-25T03:03:59;11.67;79.87
79698;SHT31;69168;42.708;23.286;2023-04-25T03:06:24;11.52;80.34
79698;SHT31;69168;42.708;23.286;2023-04-25T03:08:50;11.36;81.24
79698;SHT31;69168;42.708;23.286;2023-04-25T03:11:15;11.36;81.04
79698;SHT31;69168;42.708;23.286;2023-04-25T03:13:41;11.39;80.67
79698;SHT31;69168;42.708;23.286;2023-04-25T03:16:06;11.35;80.72
79698;SHT31;69168;42.708;23.286;2023-04-25T03:18:32;11.32;80.92
79698;SHT31;69168;42.708;23.286;2023-04-25T03:20:57;11.25;81.15
79698;SHT31;69168;42.708;23.286;2023-04-25T03:23:23;11.32;81.12
79698;SHT31;69168;42.708;23.286;2023-04-25T03:25:48;11.29;81.70
79698;SHT31;69168;42.708;23.286;2023-04-25T03:28:14;11.35;81.85
79698;SHT31;69168;42.708;23.286;2023-04-25T03:30:39;11.47;81.46
79698;SHT31;69168;42.708;23.286;2023-04-25T03:33:05;11.43;81.38
79698;SHT31;69168;42.708;23.286;2023-04-25T03:35:30;11.40;81.64
79698;SHT31;69168;42.708;23.286;2023-04-25T03:37:55;11.33;81.26
79698;SHT31;69168;42.708;23.286;2023-04-25T03:40:21;11.19;82.17
79698;SHT31;69168;42.708;23.286;2023-04-25T03:42:46;11.39;81.81
79698;SHT31;69168;42.708;23.286;2023-04-25T03:45:12;11.43;81.24
79698;SHT31;69168;42.708;23.286;2023-04-25T03:47:37;11.36;82.13
79698;SHT31;69168;42.708;23.286;2023-04-25T03:50:03;11.47;81.34
79698;SHT31;69168;42.708;23.286;2023-04-25T03:52:28;11.30;81.39
79698;SHT31;69168;42.708;23.286;2023-04-25T03:54:54;11.30;82.02
79698;SHT31;69168;42.708;23.286;2023-04-25T03:57:19;11.36;81.50
79698;SHT31;69168;42.708;23.286;2023-04-25T03:59:45;11.57;81.26
79698;SHT31;69168;42.708;23.286;2023-04-25T04:02:10;11.62;81.06
79698;SHT31;69168;42.708;23.286;2023-04-25T04:04:36;11.66;80.41
79698;SHT31;69168;42.708;23.286;2023-04-25T04:07:02;11.78;80.36
79698;SHT31;69168;42.708;23.286;2023-04-25T04:09:28;11.78;80.46
79698;SHT31;69168;42.708;23.286;2023-04-25T04:11:53;11.85;80.80
79698;SHT31;69168;42.708;23.286;2023-04-25T04:14:18;11.85;80.77
79698;SHT31;69168;42.708;23.286;2023-04-25T04:16:44;11.90;80.92
79698;SHT31;69168;42.708;23.286;2023-04-25T04:19:10;11.97;80.11
79698;SHT31;69168;42.708;23.286;2023-04-25T04:21:35;11.83;80.73
79698;SHT31;69168;42.708;23.286;2023-04-25T04:24:01;11.67;81.56
79698;SHT31;69168;42.708;23.286;2023-04-25T04:26:27;11.67;81.93
79698;SHT31;69168;42.708;23.286;2023-04-25T04:28:52;11.83;81.75
79698;SHT31;69168;42.708;23.286;2023-04-25T04:31:20;11.85;81.58
79698;SHT31;69168;42.708;23.286;2023-04-25T04:33:46;11.74;81.92
79698;SHT31;69168;42.708;23.286;2023-04-25T04:36:12;11.94;81.20
79698;SHT31;69168;42.708;23.286;2023-04-25T04:38:38;12.02;81.25
79698;SHT31;69168;42.708;23.286;2023-04-25T04:41:03;11.98;81.29
79698;SHT31;69168;42.708;23.286;2023-04-25T04:43:29;12.11;80.79
79698;SHT31;69168;42.708;23.286;2023-04-25T04:45:55;12.12;80.40
79698;SHT31;69168;42.708;23.286;2023-04-25T04:48:23;12.04;80.79
79698;SHT31;69168;42.708;23.286;2023-04-25T04:50:49;11.91;80.96
79698;SHT31;69168;42.708;23.286;2023-04-25T04:53:15;12.02;80.99
79698;SHT31;69168;42.708;23.286;2023-04-25T04:55:40;11.97;81.14
79698;SHT31;69168;42.708;23.286;2023-04-25T04:58:09;11.99;81.21
79698;SHT31;69168;42.708;23.286;2023-04-25T05:00:34;12.11;80.93
79698;SHT31;69168;42.708;23.286;2023-04-25T05:03:00;12.21;80.47
79698;SHT31;69168;42.708;23.286;2023-04-25T05:05:25;12.33;80.36
79698;SHT31;69168;42.708;23.286;2023-04-25T05:07:51;12.18;81.19
79698;SHT31;69168;42.708;23.286;2023-04-25T05:10:17;12.15;81.19
79698;SHT31;69168;42.708;23.286;2023-04-25T05:12:43;12.18;80.90
79698;SHT31;69168;42.708;23.286;2023-04-25T05:15:09;12.25;80.73
79698;SHT31;69168;42.708;23.286;2023-04-25T05:17:35;12.24;79.80
79698;SHT31;69168;42.708;23.286;2023-04-25T05:20:00;12.39;80.07
79698;SHT31;69168;42.708;23.286;2023-04-25T05:22:25;12.38;79.79
79698;SHT31;69168;42.708;23.286;2023-04-25T05:24:51;12.39;80.29
79698;SHT31;69168;42.708;23.286;2023-04-25T05:27:17;12.40;80.65
79698;SHT31;69168;42.708;23.286;2023-04-25T05:29:43;12.26;81.37
79698;SHT31;69168;42.708;23.286;2023-04-25T05:32:08;12.38;81.39
79698;SHT31;69168;42.708;23.286;2023-04-25T05:34:34;12.61;80.22
79698;SHT31;69168;42.708;23.286;2023-04-25T05:37:00;12.61;79.67
79698;SHT31;69168;42.708;23.286;2023-04-25T05:39:25;12.64;79.05
79698;SHT31;69168;42.708;23.286;2023-04-25T05:41:51;12.67;79.60
79698;SHT31;69168;42.708;23.286;2023-04-25T05:44:17;12.70;79.55
79698;SHT31;69168;42.708;23.286;2023-04-25T05:46:43;12.67;79.08
79698;SHT31;69168;42.708;23.286;2023-04-25T05:49:08;12.66;79.20
79698;SHT31;69168;42.708;23.286;2023-04-25T05:51:33;12.61;78.86
79698;SHT31;69168;42.708;23.286;2023-04-25T05:53:59;12.59;79.08
79698;SHT31;69168;42.708;23.286;2023-04-25T05:56:24;12.66;78.43
79698;SHT31;69168;42.708;23.286;2023-04-25T05:58:50;12.66;78.40
79698;SHT31;69168;42.708;23.286;2023-04-25T06:01:16;12.60;78.84
79698;SHT31;69168;42.708;23.286;2023-04-25T06:03:41;12.61;78.95
79698;SHT31;69168;42.708;23.286;2023-04-25T06:06:11;12.64;79.35
79698;SHT31;69168;42.708;23.286;2023-04-25T06:08:36;12.53;79.75
79698;SHT31;69168;42.708;23.286;2023-04-25T06:11:02;12.63;79.30
79698;SHT31;69168;42.708;23.286;2023-04-25T06:13:28;12.63;78.88
79698;SHT31;69168;42.708;23.286;2023-04-25T06:15:53;12.63;79.66
79698;SHT31;69168;42.708;23.286;2023-04-25T06:18:19;12.64;80.02
79698;SHT31;69168;42.708;23.286;2023-04-25T06:20:45;12.66;79.47
79698;SHT31;69168;42.708;23.286;2023-04-25T06:23:10;12.77;78.68
79698;SHT31;69168;42.708;23.286;2023-04-25T06:25:35;12.85;78.39
79698;SHT31;69168;42.708;23.286;2023-04-25T06:28:01;12.91;79.22
79698;SHT31;69168;42.708;23.286;2023-04-25T06:30:26;12.95;78.91
79698;SHT31;69168;42.708;23.286;2023-04-25T06:32:52;13.08;78.69
79698;SHT31;69168;42.708;23.286;2023-04-25T06:35:19;13.12;78.43
79698;SHT31;69168;42.708;23.286;2023-04-25T06:37:44;13.23;78.19
79698;SHT31;69168;42.708;23.286;2023-04-25T06:40:10;13.25;78.65
79698;SHT31;69168;42.708;23.286;2023-04-25T06:42:36;13.29;78.65
79698;SHT31;69168;42.708;23.286;2023-04-25T06:45:01;13.36;78.16
79698;SHT31;69168;42.708;23.286;2023-04-25T06:47:27;13.45;77.16
79698;SHT31;69168;42.708;23.286;2023-04-25T06:49:52;13.63;76.08
79698;SHT31;69168;42.708;23.286;2023-04-25T06:52:18;13.65;75.52
79698;SHT31;69168;42.708;23.286;2023-04-25T06:54:44;13.70;75.46
79698;SHT31;69168;42.708;23.286;2023-04-25T06:57:10;13.71;75.52
79698;SHT31;69168;42.708;23.286;2023-04-25T06:59:35;13.69;75.65
79698;SHT31;69168;42.708;23.286;2023-04-25T07:02:00;13.73;74.93
79698;SHT31;69168;42.708;23.286;2023-04-25T07:04:26;13.69;75.28
79698;SHT31;69168;42.708;23.286;2023-04-25T07:06:51;13.63;75.27
79698;SHT31;69168;42.708;23.286;2023-04-25T07:09:17;13.60;74.81
79698;SHT31;69168;42.708;23.286;2023-04-25T07:11:42;13.66;75.88
79698;SHT31;69168;42.708;23.286;2023-04-25T07:14:08;13.69;75.30
79698;SHT31;69168;42.708;23.286;2023-04-25T07:16:33;13.74;73.84
79698;SHT31;69168;42.708;23.286;2023-04-25T07:18:58;13.65;74.64
79698;SHT31;69168;42.708;23.286;2023-04-25T07:21:27;13.70;73.74
79698;SHT31;69168;42.708;23.286;2023-04-25T07:23:52;13.84;74.72
79698;SHT31;69168;42.708;23.286;2023-04-25T07:26:17;13.91;74.58
79698;SHT31;69168;42.708;23.286;2023-04-25T07:28:43;14.00;74.19
79698;SHT31;69168;42.708;23.286;2023-04-25T07:31:09;14.08;74.10
79698;SHT31;69168;42.708;23.286;2023-04-25T07:33:34;14.12;73.67
79698;SHT31;69168;42.708;23.286;2023-04-25T07:36:00;14.11;74.29
79698;SHT31;69168;42.708;23.286;2023-04-25T07:38:26;14.26;74.16
79698;SHT31;69168;42.708;23.286;2023-04-25T07:40:51;14.39;72.91
79698;SHT31;69168;42.708;23.286;2023-04-25T07:43:17;14.45;73.10
79698;SHT31;69168;42.708;23.286;2023-04-25T07:45:46;14.46;72.84
79698;SHT31;69168;42.708;23.286;2023-04-25T07:48:17;14.55;73.36
79698;SHT31;69168;42.708;23.286;2023-04-25T07:50:43;14.65;73.33
79698;SHT31;69168;42.708;23.286;2023-04-25T07:53:09;14.69;72.30
79698;SHT31;69168;42.708;23.286;2023-04-25T07:55:35;14.87;71.65
79698;SHT31;69168;42.708;23.286;2023-04-25T07:58:01;14.80;71.94
79698;SHT31;69168;42.708;23.286;2023-04-25T08:00:28;14.84;72.43
79698;SHT31;69168;42.708;23.286;2023-04-25T08:02:53;14.90;72.47
79698;SHT31;69168;42.708;23.286;2023-04-25T08:05:19;14.97;71.11
79698;SHT31;69168;42.708;23.286;2023-04-25T08:07:44;15.04;70.08
79698;SHT31;69168;42.708;23.286;2023-04-25T08:10:10;15.15;70.42
79698;SHT31;69168;42.708;23.286;2023-04-25T08:12:35;15.31;70.59
79698;SHT31;69168;42.708;23.286;2023-04-25T08:15:01;15.53;70.47
79698;SHT31;69168;42.708;23.286;2023-04-25T08:17:27;15.66;69.75
79698;SHT31;69168;42.708;23.286;2023-04-25T08:19:52;15.70;69.66
79698;SHT31;69168;42.708;23.286;2023-04-25T08:22:18;15.94;65.76
79698;SHT31;69168;42.708;23.286;2023-04-25T08:24:43;15.55;65.78
79698;SHT31;69168;42.708;23.286;2023-04-25T08:27:09;15.27;68.08
79698;SHT31;69168;42.708;23.286;2023-04-25T08:29:34;15.03;70.92
79698;SHT31;69168;42.708;23.286;2023-04-25T08:32:00;14.53;68.00
79698;SHT31;69168;42.708;23.286;2023-04-25T08:34:27;14.53;71.79
79698;SHT31;69168;42.708;23.286;2023-04-25T08:36:52;14.07;70.19
79698;SHT31;69168;42.708;23.286;2023-04-25T08:39:18;13.77;75.18
79698;SHT31;69168;42.708;23.286;2023-04-25T08:41:44;13.63;73.61
79698;SHT31;69168;42.708;23.286;2023-04-25T08:44:10;13.71;72.98
79698;SHT31;69168;42.708;23.286;2023-04-25T08:46:38;13.66;71.48
79698;SHT31;69168;42.708;23.286;2023-04-25T08:49:04;13.63;71.36
79698;SHT31;69168;42.708;23.286;2023-04-25T08:51:31;13.84;69.44
79698;SHT31;69168;42.708;23.286;2023-04-25T08:54:10;13.88;71.86
79698;SHT31;69168;42.708;23.286;2023-04-25T08:56:38;14.31;73.51
79698;SHT31;69168;42.708;23.286;2023-04-25T08:59:05;14.55;74.75
79698;SHT31;69168;42.708;23.286;2023-04-25T09:01:34;14.70;74.97
79698;SHT31;69168;42.708;23.286;2023-04-25T09:04:00;14.91;75.37
79698;SHT31;69168;42.708;23.286;2023-04-25T09:06:26;15.07;73.99
79698;SHT31;69168;42.708;23.286;2023-04-25T09:08:52;15.28;74.19
79698;SHT31;69168;42.708;23.286;2023-04-25T09:11:19;15.41;73.44
79698;SHT31;69168;42.708;23.286;2023-04-25T09:13:45;15.60;73.38
79698;SHT31;69168;42.708;23.286;2023-04-25T09:16:11;15.67;73.10
79698;SHT31;69168;42.708;23.286;2023-04-25T09:18:37;15.85;71.92
79698;SHT31;69168;42.708;23.286;2023-04-25T09:21:07;15.98;71.32
79698;SHT31;69168;42.708;23.286;2023-04-25T09:23:49;16.10;67.63
79698;SHT31;69168;42.708;23.286;2023-04-25T09:26:18;16.17;68.35
79698;SHT31;69168;42.708;23.286;2023-04-25T09:28:44;16.22;64.29
79698;SHT31;69168;42.708;23.286;2023-04-25T09:31:11;16.25;64.17
79698;SHT31;69168;42.708;23.286;2023-04-25T09:34:01;16.00;59.96
79698;SHT31;69168;42.708;23.286;2023-04-25T09:36:27;16.21;61.97
79698;SHT31;69168;42.708;23.286;2023-04-25T09:38:53;16.48;61.62
79698;SHT31;69168;42.708;23.286;2023-04-25T09:41:23;16.38;52.57
79698;SHT31;69168;42.708;23.286;2023-04-25T09:43:49;16.45;62.57
79698;SHT31;69168;42.708;23.286;2023-04-25T09:46:15;16.25;65.50
79698;SHT31;69168;42.708;23.286;2023-04-25T09:48:48;16.21;66.25
79698;SHT31;69168;42.708;23.286;2023-04-25T09:51:14;16.33;66.91
79698;SHT31;69168;42.708;23.286;2023-04-25T09:53:42;16.33;65.91
79698;SHT31;69168;42.708;23.286;2023-04-25T09:56:10;16.52;65.48
79698;SHT31;69168;42.708;23.286;2023-04-25T09:58:37;16.83;65.23
79698;SHT31;69168;42.708;23.286;2023-04-25T10:01:05;17.14;65.13
79698;SHT31;69168;42.708;23.286;2023-04-25T10:03:32;17.24;64.77
79698;SHT31;69168;42.708;23.286;2023-04-25T10:06:07;17.32;63.74
79698;SHT31;69168;42.708;23.286;2023-04-25T10:08:35;17.36;60.64
79698;SHT31;69168;42.708;23.286;2023-04-25T10:11:04;17.42;59.51
79698;SHT31;69168;42.708;23.286;2023-04-25T10:13:30;17.49;61.38
79698;SHT31;69168;42.708;23.286;2023-04-25T10:16:00;17.58;58.85
79698;SHT31;69168;42.708;23.286;2023-04-25T10:18:27;17.55;59.99
79698;SHT31;69168;42.708;23.286;2023-04-25T10:21:01;17.63;55.26
79698;SHT31;69168;42.708;23.286;2023-04-25T10:23:27;17.30;56.27
79698;SHT31;69168;42.708;23.286;2023-04-25T10:25:54;17.25;53.74
79698;SHT31;69168;42.708;23.286;2023-04-25T10:28:20;17.17;50.03
79698;SHT31;69168;42.708;23.286;2023-04-25T10:31:03;17.13;53.99
79698;SHT31;69168;42.708;23.286;2023-04-25T10:33:33;16.97;54.33
79698;SHT31;69168;42.708;23.286;2023-04-25T10:36:15;15.82;54.28
79698;SHT31;69168;42.708;23.286;2023-04-25T10:38:43;15.11;58.85
79698;SHT31;69168;42.708;23.286;2023-04-25T10:41:10;14.83;60.20
79698;SHT31;69168;42.708;23.286;2023-04-25T10:43:43;15.05;60.30
79698;SHT31;69168;42.708;23.286;2023-04-25T10:48:54;15.21;61.37
79698;SHT31;69168;42.708;23.286;2023-04-25T10:51:24;15.39;59.83
79698;SHT31;69168;42.708;23.286;2023-04-25T10:54:01;15.49;58.37
79698;SHT31;69168;42.708;23.286;2023-04-25T10:59:11;16.13;57.36
79698;SHT31;69168;42.708;23.286;2023-04-25T11:01:45;16.53;57.24
79698;SHT31;69168;42.708;23.286;2023-04-25T11:04:33;16.65;52.99
79698;SHT31;69168;42.708;23.286;2023-04-25T11:09:32;16.77;49.00
79698;SHT31;69168;42.708;23.286;2023-04-25T11:11:59;16.90;48.60
79698;SHT31;69168;42.708;23.286;2023-04-25T11:14:26;17.15;49.39
79698;SHT31;69168;42.708;23.286;2023-04-25T11:16:56;17.08;46.15
79698;SHT31;69168;42.708;23.286;2023-04-25T11:19:22;16.60;48.48
79698;SHT31;69168;42.708;23.286;2023-04-25T11:21:48;16.55;49.28
79698;SHT31;69168;42.708;23.286;2023-04-25T11:24:13;16.39;51.82
79698;SHT31;69168;42.708;23.286;2023-04-25T11:26:41;16.35;49.56
79698;SHT31;69168;42.708;23.286;2023-04-25T11:29:07;16.22;51.19
79698;SHT31;69168;42.708;23.286;2023-04-25T11:31:33;16.22;53.28
79698;SHT31;69168;42.708;23.286;2023-04-25T11:33:58;16.08;54.11
79698;SHT31;69168;42.708;23.286;2023-04-25T11:36:25;16.00;55.08
79698;SHT31;69168;42.708;23.286;2023-04-25T11:38:51;15.77;58.46
79698;SHT31;69168;42.708;23.286;2023-04-25T11:41:18;15.30;58.14
79698;SHT31;69168;42.708;23.286;2023-04-25T11:43:43;15.20;58.81
79698;SHT31;69168;42.708;23.286;2023-04-25T11:46:09;15.01;57.94
79698;SHT31;69168;42.708;23.286;2023-04-25T11:51:04;14.75;60.03
79698;SHT31;69168;42.708;23.286;2023-04-25T11:53:30;14.77;59.70
79698;SHT31;69168;42.708;23.286;2023-04-25T11:55:55;15.36;59.84
79698;SHT31;69168;42.708;23.286;2023-04-25T11:58:21;16.10;57.51
79698;SHT31;69168;42.708;23.286;2023-04-25T12:00:47;16.80;55.67
79698;SHT31;69168;42.708;23.286;2023-04-25T12:03:12;16.94;52.37
79698;SHT31;69168;42.708;23.286;2023-04-25T12:05:38;17.03;51.69
79698;SHT31;69168;42.708;23.286;2023-04-25T12:08:15;17.18;49.43
79698;SHT31;69168;42.708;23.286;2023-04-25T12:10:43;16.87;50.54
79698;SHT31;69168;42.708;23.286;2023-04-25T12:13:24;16.47;50.97
79698;SHT31;69168;42.708;23.286;2023-04-25T12:15:50;16.44;51.81
79698;SHT31;69168;42.708;23.286;2023-04-25T12:18:20;16.42;52.29
79698;SHT31;69168;42.708;23.286;2023-04-25T12:20:46;16.38;52.46
79698;SHT31;69168;42.708;23.286;2023-04-25T12:23:11;16.38;52.88
79698;SHT31;69168;42.708;23.286;2023-04-25T12:28:14;14.94;64.02
79698;SHT31;69168;42.708;23.286;2023-04-25T12:30:59;14.00;72.16
79698;SHT31;69168;42.708;23.286;2023-04-25T12:33:27;13.65;70.29
79698;SHT31;69168;42.708;23.286;2023-04-25T12:35:53;13.12;72.40
79698;SHT31;69168;42.708;23.286;2023-04-25T12:38:30;12.76;75.36
79698;SHT31;69168;42.708;23.286;2023-04-25T12:40:57;12.64;75.04
79698;SHT31;69168;42.708;23.286;2023-04-25T12:43:23;12.52;79.16
79698;SHT31;69168;42.708;23.286;2023-04-25T12:45:53;12.61;72.17
79698;SHT31;69168;42.708;23.286;2023-04-25T12:48:19;12.55;76.62
79698;SHT31;69168;42.708;23.286;2023-04-25T12:50:45;12.70;76.12
79698;SHT31;69168;42.708;23.286;2023-04-25T12:53:14;12.83;77.69
79698;SHT31;69168;42.708;23.286;2023-04-25T12:55:40;13.02;76.40
79698;SHT31;69168;42.708;23.286;2023-04-25T12:58:05;13.12;75.91
79698;SHT31;69168;42.708;23.286;2023-04-25T13:00:31;13.28;69.96
79698;SHT31;69168;42.708;23.286;2023-04-25T13:02:57;13.28;72.85
79698;SHT31;69168;42.708;23.286;2023-04-25T13:05:22;13.26;73.05
79698;SHT31;69168;42.708;23.286;2023-04-25T13:07:48;13.34;73.54
79698;SHT31;69168;42.708;23.286;2023-04-25T13:10:13;13.43;74.07
79698;SHT31;69168;42.708;23.286;2023-04-25T13:12:39;13.30;73.56
79698;SHT31;69168;42.708;23.286;2023-04-25T13:15:05;13.39;74.94
79698;SHT31;69168;42.708;23.286;2023-04-25T13:17:30;13.40;75.70
79698;SHT31;69168;42.708;23.286;2023-04-25T13:19:56;13.43;76.13
79698;SHT31;69168;42.708;23.286;2023-04-25T13:22:21;13.25;76.30
79698;SHT31;69168;42.708;23.286;2023-04-25T13:24:47;12.98;75.85
79698;SHT31;69168;42.708;23.286;2023-04-25T13:27:13;12.94;76.19
79698;SHT31;69168;42.708;23.286;2023-04-25T13:29:38;12.74;77.69
79698;SHT31;69168;42.708;23.286;2023-04-25T13:32:06;12.67;77.85
79698;SHT31;69168;42.708;23.286;2023-04-25T13:34:32;12.64;79.42
79698;SHT31;69168;42.708;23.286;2023-04-25T13:36:58;12.57;80.23
79698;SHT31;69168;42.708;23.286;2023-04-25T13:39:24;12.46;81.34
79698;SHT31;69168;42.708;23.286;2023-04-25T13:41:50;12.35;82.18
79698;SHT31;69168;42.708;23.286;2023-04-25T13:44:15;12.29;81.87
79698;SHT31;69168;42.708;23.286;2023-04-25T13:46:41;12.26;82.80
79698;SHT31;69168;42.708;23.286;2023-04-25T13:49:07;12.33;82.64
79698;SHT31;69168;42.708;23.286;2023-04-25T13:51:32;12.33;82.37
79698;SHT31;69168;42.708;23.286;2023-04-25T13:53:58;12.49;81.54
79698;SHT31;69168;42.708;23.286;2023-04-25T13:56:23;12.68;80.67
79698;SHT31;69168;42.708;23.286;2023-04-25T13:58:52;12.93;80.49
79698;SHT31;69168;42.708;23.286;2023-04-25T14:01:18;13.08;77.95
79698;SHT31;69168;42.708;23.286;2023-04-25T14:03:44;13.49;77.19
79698;SHT31;69168;42.708;23.286;2023-04-25T14:06:10;14.10;75.26
79698;SHT31;69168;42.708;23.286;2023-04-25T14:08:39;14.39;74.16
79698;SHT31;69168;42.708;23.286;2023-04-25T14:11:04;14.75;71.76
79698;SHT31;69168;42.708;23.286;2023-04-25T14:13:29;15.00;67.71
79698;SHT31;69168;42.708;23.286;2023-04-25T14:15:55;15.17;69.65
79698;SHT31;69168;42.708;23.286;2023-04-25T14:18:21;15.42;67.73
79698;SHT31;69168;42.708;23.286;2023-04-25T14:20:46;15.74;67.60
79698;SHT31;69168;42.708;23.286;2023-04-25T14:23:12;15.74;66.69
79698;SHT31;69168;42.708;23.286;2023-04-25T14:25:37;15.41;66.74
79698;SHT31;69168;42.708;23.286;2023-04-25T14:28:03;15.32;68.04
79698;SHT31;69168;42.708;23.286;2023-04-25T14:30:29;15.21;66.69
79698;SHT31;69168;42.708;23.286;2023-04-25T14:32:54;15.04;65.97
79698;SHT31;69168;42.708;23.286;2023-04-25T14:35:20;15.07;64.73
79698;SHT31;69168;42.708;23.286;2023-04-25T14:37:45;15.05;69.22
79698;SHT31;69168;42.708;23.286;2023-04-25T14:40:11;15.22;66.27
79698;SHT31;69168;42.708;23.286;2023-04-25T14:42:38;15.28;65.30
79698;SHT31;69168;42.708;23.286;2023-04-25T14:45:05;15.55;66.42
79698;SHT31;69168;42.708;23.286;2023-04-25T14:47:32;16.21;64.36
79698;SHT31;69168;42.708;23.286;2023-04-25T14:49:58;16.58;64.20
79698;SHT31;69168;42.708;23.286;2023-04-25T14:52:23;16.81;65.16
79698;SHT31;69168;42.708;23.286;2023-04-25T14:54:49;16.68;62.00
79698;SHT31;69168;42.708;23.286;2023-04-25T14:57:15;16.55;61.13
79698;SHT31;69168;42.708;23.286;2023-04-25T14:59:40;16.28;62.98
79698;SHT31;69168;42.708;23.286;2023-04-25T15:02:06;15.94;61.48
79698;SHT31;69168;42.708;23.286;2023-04-25T15:04:31;15.80;62.71
79698;SHT31;69168;42.708;23.286;2023-04-25T15:06:57;15.46;63.09
79698;SHT31;69168;42.708;23.286;2023-04-25T15:09:22;15.32;63.28
79698;SHT31;69168;42.708;23.286;2023-04-25T15:11:49;15.34;64.31
79698;SHT31;69168;42.708;23.286;2023-04-25T15:14:16;15.14;65.37
79698;SHT31;69168;42.708;23.286;2023-04-25T15:16:41;15.14;66.72
79698;SHT31;69168;42.708;23.286;2023-04-25T15:19:07;14.95;66.12
79698;SHT31;69168;42.708;23.286;2023-04-25T15:21:33;14.95;66.18
79698;SHT31;69168;42.708;23.286;2023-04-25T15:23:58;14.97;65.22